CheckWX is a tool to help pilots better visualize weather data.  It is not intended as a substitute for an official pre-flight weather briefing.

15:12:21 UTC

KSXS METAR
Shell AHP Heliport
Fort Rucker, Alabama, USA
Current

14 mins ago

KSXS 261458Z AUTO 03004KT 10SM CLR 30/19 A3016 RMK AO2 SLP211 T03000193 50002 $
Observed
May-26 @ 14:58 UTC
Wind
  • 030° at 4 KTS
Visibility
10 SM
Flight Rules
VFR
Cloud Levels
  • Clear skies
Temperature
30°C / 86°F
Dewpoint
19°C / 66°F
Heat Index
31°C / 88°F
Humidity
52%
Altimeter
30.16" Hg
Pressure
1021.32 hPa
Previous

1 hour ago

KSXS 261358Z AUTO 34004KT 9SM CLR 28/19 A3017 RMK AO2 SLP214 T02840188 $
Observed
May-26 @ 13:58 UTC
Wind
  • 340° at 4 KTS
Visibility
9 SM
Flight Rules
VFR
Cloud Levels
  • Clear skies
Temperature
28°C / 82°F
Dewpoint
19°C / 66°F
Heat Index
29°C / 84°F
Humidity
58%
Altimeter
30.17" Hg
Pressure
1021.72 hPa
Previous

2 hours ago

KSXS 261258Z AUTO 03003KT 9SM CLR 26/20 A3017 RMK AO2 SLP214 T02620204 $
Observed
May-26 @ 12:58 UTC
Wind
  • 030° at 3 KTS
Visibility
9 SM
Flight Rules
VFR
Cloud Levels
  • Clear skies
Temperature
26°C / 79°F
Dewpoint
20°C / 68°F
Humidity
70%
Altimeter
30.17" Hg
Pressure
1021.72 hPa